createdAt,value
2019-05-13T00:00:46.887Z,78.00
2019-05-13T00:03:17.073Z,77.90
2019-05-13T00:05:47.493Z,78.00
2019-05-13T00:08:17.568Z,77.90
2019-05-13T00:10:47.856Z,77.80
2019-05-13T00:13:18.086Z,77.80
2019-05-13T00:15:48.419Z,77.60
2019-05-13T00:18:18.750Z,77.50
2019-05-13T00:20:49.937Z,77.50
2019-05-13T00:23:20.130Z,77.60
2019-05-13T00:25:50.364Z,77.40
2019-05-13T00:28:20.828Z,77.40
2019-05-13T00:30:51.258Z,77.20
2019-05-13T00:33:21.650Z,77.10
2019-05-13T00:35:53.408Z,77.10
2019-05-13T00:38:24.535Z,76.80
2019-05-13T00:40:55.059Z,76.60
2019-05-13T00:43:25.326Z,76.50
2019-05-13T00:45:55.754Z,76.30
2019-05-13T00:48:26.041Z,76.20
2019-05-13T00:50:56.378Z,75.90
2019-05-13T00:53:26.777Z,75.50
2019-05-13T00:55:57.112Z,75.20
2019-05-13T00:58:27.402Z,74.70
2019-05-13T01:00:57.754Z,74.60
2019-05-13T01:03:28.465Z,74.40
2019-05-13T01:05:58.731Z,74.00
2019-05-13T01:08:29.142Z,73.70
2019-05-13T01:10:59.774Z,73.50
2019-05-13T01:13:30.080Z,73.20
2019-05-13T01:16:00.424Z,73.00
2019-05-13T01:18:30.863Z,72.80
2019-05-13T01:21:01.228Z,72.50
2019-05-13T01:23:34.206Z,72.00
2019-05-13T01:26:04.102Z,72.00
2019-05-13T01:28:34.616Z,71.90
2019-05-13T01:31:05.674Z,71.60
2019-05-13T01:33:36.342Z,71.40
2019-05-13T01:36:06.979Z,70.90
2019-05-13T01:38:37.134Z,70.70
2019-05-13T01:41:07.393Z,70.60
2019-05-13T01:43:37.773Z,70.20
2019-05-13T01:46:08.360Z,70.00
2019-05-13T01:48:38.713Z,69.90
2019-05-13T01:51:08.875Z,69.60
2019-05-13T01:55:27.854Z,69.00
2019-05-13T01:57:58.423Z,68.90
2019-05-13T02:00:34.916Z,68.80
2019-05-13T02:03:04.051Z,68.50
2019-05-13T02:05:34.415Z,68.00
2019-05-13T02:08:05.181Z,67.10
2019-05-13T02:10:36.821Z,66.90
2019-05-13T02:13:07.079Z,66.60
2019-05-13T02:15:37.417Z,66.50
2019-05-13T02:18:07.955Z,66.50
2019-05-13T02:20:38.189Z,66.50
2019-05-13T02:23:08.536Z,66.30
2019-05-13T02:25:38.792Z,66.10
2019-05-13T02:28:10.659Z,66.00
2019-05-13T02:30:40.697Z,65.90
2019-05-13T02:33:13.156Z,65.80
2019-05-13T02:35:43.452Z,65.40
2019-05-13T02:38:23.678Z,64.90
2019-05-13T02:40:45.401Z,64.70
2019-05-13T02:43:15.912Z,64.60
2019-05-13T02:45:46.391Z,64.40
2019-05-13T02:48:16.654Z,63.90
2019-05-13T02:50:46.927Z,63.80
2019-05-13T02:53:17.488Z,63.50
2019-05-13T02:57:23.051Z,63.30
2019-05-13T02:59:55.679Z,63.00
2019-05-13T03:02:27.429Z,62.90
2019-05-13T03:04:57.817Z,62.60
2019-05-13T03:07:28.053Z,62.10
2019-05-13T03:09:58.281Z,62.00
2019-05-13T03:12:32.012Z,61.60
2019-05-13T03:15:03.801Z,61.30
2019-05-13T03:17:35.556Z,61.10
2019-05-13T03:20:11.966Z,60.40
2019-05-13T03:22:43.109Z,59.80
2019-05-13T03:25:13.108Z,60.80
2019-05-13T03:27:43.082Z,60.50
2019-05-13T03:30:16.345Z,60.50
2019-05-13T03:32:52.821Z,60.10
2019-05-13T03:35:17.431Z,61.10
2019-05-13T03:37:47.927Z,60.00
2019-05-13T03:40:18.368Z,59.90
2019-05-13T03:42:53.030Z,59.80
2019-05-13T03:45:24.709Z,59.90
2019-05-13T03:49:13.850Z,59.30
2019-05-13T03:51:43.178Z,59.40
2019-05-13T03:54:13.478Z,60.10
2019-05-13T03:56:43.917Z,59.30
2019-05-13T03:59:14.232Z,59.20
2019-05-13T04:01:45.054Z,59.10
2019-05-13T04:04:15.432Z,58.90
2019-05-13T04:06:45.744Z,58.80
2019-05-13T04:09:25.596Z,58.30
2019-05-13T04:11:47.897Z,58.30
2019-05-13T04:14:18.578Z,58.00
2019-05-13T04:16:52.879Z,58.20
2019-05-13T04:19:23.197Z,57.90
2019-05-13T04:21:54.248Z,58.70
2019-05-13T04:24:24.546Z,57.90
2019-05-13T04:26:55.091Z,57.70
2019-05-13T04:29:25.617Z,57.60
2019-05-13T04:31:56.051Z,57.60
2019-05-13T04:34:26.521Z,57.70
2019-05-13T04:36:57.121Z,58.00
2019-05-13T04:39:44.609Z,58.10
2019-05-13T04:42:02.112Z,57.90
2019-05-13T04:46:45.658Z,57.80
2019-05-13T04:49:16.202Z,57.70
2019-05-13T04:51:46.409Z,57.40
2019-05-13T04:54:16.738Z,57.40
2019-05-13T04:56:47.232Z,57.00
2019-05-13T04:59:17.667Z,56.90
2019-05-13T05:01:55.164Z,56.30
2019-05-13T05:04:30.541Z,56.60
2019-05-13T05:06:59.417Z,56.30
2019-05-13T05:09:33.064Z,56.10
2019-05-13T05:12:06.244Z,56.00
2019-05-13T05:14:41.633Z,56.00
2019-05-13T05:17:13.615Z,56.00
2019-05-13T05:19:47.537Z,55.50
2019-05-13T05:22:22.154Z,55.70
2019-05-13T05:24:55.392Z,55.60
2019-05-13T05:27:28.435Z,55.30
2019-05-13T05:30:02.079Z,55.20
2019-05-13T05:32:36.014Z,55.30
2019-05-13T05:35:11.660Z,55.00
2019-05-13T05:37:43.489Z,54.80
2019-05-13T05:40:27.096Z,54.50
2019-05-13T05:42:47.744Z,54.50
2019-05-13T05:45:21.833Z,54.40
2019-05-13T05:47:53.419Z,54.30
2019-05-13T05:50:23.623Z,54.10
2019-05-13T05:52:55.319Z,54.10
2019-05-13T05:55:28.301Z,54.40
2019-05-13T05:58:01.583Z,54.80
2019-05-13T06:00:34.073Z,55.30
2019-05-13T06:03:06.780Z,55.50
2019-05-13T06:05:38.420Z,55.80
2019-05-13T06:08:11.284Z,56.20
2019-05-13T06:10:47.286Z,56.50
2019-05-13T06:13:13.114Z,56.70
2019-05-13T06:15:43.486Z,56.90
2019-05-13T06:18:13.791Z,57.00
2019-05-13T06:20:44.194Z,57.10
2019-05-13T06:23:14.700Z,57.30
2019-05-13T06:25:45.028Z,57.60
2019-05-13T06:28:15.314Z,58.10
2019-05-13T06:30:45.623Z,58.40
2019-05-13T06:33:16.098Z,59.30
2019-05-13T06:35:46.329Z,59.90
2019-05-13T06:38:16.789Z,60.20
2019-05-13T06:40:59.477Z,60.80
2019-05-13T06:43:20.987Z,60.90
2019-05-13T06:45:51.393Z,61.20
2019-05-13T06:48:23.120Z,61.30
2019-05-13T06:50:53.712Z,61.40
2019-05-13T06:53:23.903Z,61.20
2019-05-13T06:55:54.415Z,61.20
2019-05-13T06:58:25.099Z,61.00
2019-05-13T07:00:58.051Z,61.00
2019-05-13T07:03:27.208Z,60.80
2019-05-13T07:06:01.636Z,60.70
2019-05-13T07:08:31.419Z,60.70
2019-05-13T07:11:16.832Z,60.50
2019-05-13T07:13:33.654Z,60.40
2019-05-13T07:16:03.967Z,60.40
2019-05-13T07:18:34.263Z,60.20
2019-05-13T07:21:04.714Z,60.20
2019-05-13T07:23:34.940Z,59.90
2019-05-13T07:26:05.625Z,59.60
2019-05-13T07:28:35.966Z,59.00
2019-05-13T07:31:06.386Z,58.50
2019-05-13T07:33:36.582Z,58.50
2019-05-13T07:36:06.928Z,58.60
2019-05-13T07:38:37.300Z,58.90
2019-05-13T07:41:08.052Z,59.60
2019-05-13T07:43:38.253Z,59.80
2019-05-13T07:46:08.600Z,60.10
2019-05-13T07:48:41.421Z,60.50
2019-05-13T07:51:11.991Z,61.20
2019-05-13T07:53:43.123Z,61.50
2019-05-13T07:56:13.750Z,61.90
2019-05-13T07:58:43.915Z,62.00
2019-05-13T08:01:14.308Z,62.20
2019-05-13T08:03:44.553Z,62.40
2019-05-13T08:06:14.771Z,62.40
2019-05-13T08:08:45.024Z,62.60
2019-05-13T08:11:15.630Z,63.00
2019-05-13T08:13:46.254Z,63.40
2019-05-13T08:16:16.682Z,63.80
2019-05-13T08:18:46.993Z,63.80
2019-05-13T08:22:52.087Z,64.10
2019-05-13T08:25:25.738Z,64.20
2019-05-13T08:27:55.953Z,64.00
2019-05-13T08:30:26.320Z,64.00
2019-05-13T08:32:56.506Z,63.70
2019-05-13T08:35:26.740Z,63.50
2019-05-13T08:37:57.134Z,63.10
2019-05-13T08:40:27.350Z,62.90
2019-05-13T08:42:57.921Z,62.70
2019-05-13T08:45:28.373Z,62.50
2019-05-13T08:47:58.565Z,62.30
2019-05-13T08:50:28.848Z,62.00
2019-05-13T08:52:59.066Z,61.60
2019-05-13T08:55:32.029Z,61.50
2019-05-13T08:58:01.911Z,61.50
2019-05-13T09:00:36.076Z,61.80
2019-05-13T09:03:06.727Z,62.00
2019-05-13T09:05:36.947Z,61.90
2019-05-13T09:10:42.994Z,61.80
2019-05-13T09:13:13.424Z,61.50
2019-05-13T09:15:43.794Z,61.40
2019-05-13T09:18:14.247Z,61.20
2019-05-13T09:20:44.527Z,60.80
2019-05-13T09:23:14.980Z,60.90
2019-05-13T09:25:45.531Z,61.10
2019-05-13T09:28:15.730Z,61.00
2019-05-13T09:30:46.418Z,60.90
2019-05-13T09:33:16.729Z,60.80
2019-05-13T09:35:50.040Z,60.20
2019-05-13T09:38:18.791Z,60.50
2019-05-13T09:40:49.310Z,60.20
2019-05-13T09:43:22.077Z,60.20
2019-05-13T09:45:52.240Z,60.30
2019-05-13T09:48:22.992Z,60.30
2019-05-13T09:50:54.219Z,60.10
2019-05-13T09:53:24.548Z,59.50
2019-05-13T09:55:54.629Z,60.00
2019-05-13T09:58:25.038Z,61.10
2019-05-13T10:00:55.452Z,61.30
2019-05-13T10:03:29.555Z,62.30
2019-05-13T10:05:57.291Z,62.80
2019-05-13T10:08:27.729Z,63.30
2019-05-13T10:10:58.260Z,63.90
2019-05-13T10:13:28.372Z,64.30
2019-05-13T10:15:58.947Z,64.90
2019-05-13T10:18:32.240Z,65.50
2019-05-13T10:21:02.944Z,66.30
2019-05-13T10:23:33.746Z,66.80
2019-05-13T10:26:11.693Z,67.10
2019-05-13T10:28:42.672Z,67.40
2019-05-13T10:31:13.271Z,68.80
2019-05-13T10:33:46.208Z,68.00
2019-05-13T10:36:16.990Z,68.20
2019-05-13T10:38:47.518Z,67.80
2019-05-13T10:41:17.830Z,68.30
2019-05-13T10:44:31.262Z,68.30
2019-05-13T10:47:02.473Z,68.00
2019-05-13T10:49:33.376Z,68.20
2019-05-13T10:52:03.740Z,67.10
2019-05-13T10:54:33.966Z,67.60
2019-05-13T10:57:04.388Z,67.30
2019-05-13T10:59:34.655Z,67.10
2019-05-13T11:02:05.342Z,67.10
2019-05-13T11:04:36.155Z,66.80
2019-05-13T11:07:06.717Z,67.00
2019-05-13T11:09:37.251Z,67.50
2019-05-13T11:12:12.476Z,67.20
2019-05-13T11:14:46.712Z,67.30
2019-05-13T11:17:15.224Z,67.40
2019-05-13T11:19:45.527Z,67.30
2019-05-13T11:22:15.938Z,67.40
2019-05-13T11:24:46.662Z,67.40
2019-05-13T11:27:17.095Z,67.40
2019-05-13T11:29:48.052Z,67.30
2019-05-13T11:32:18.431Z,68.00
2019-05-13T11:34:48.848Z,67.30
2019-05-13T11:37:19.444Z,67.30
2019-05-13T11:39:53.007Z,67.90
2019-05-13T11:42:23.767Z,67.40
2019-05-13T11:44:54.644Z,67.40
2019-05-13T11:47:25.270Z,67.50
2019-05-13T11:49:55.744Z,67.50
2019-05-13T11:52:26.516Z,67.70
2019-05-13T11:54:56.931Z,67.90
2019-05-13T11:57:27.298Z,68.10
2019-05-13T11:59:57.936Z,68.30
2019-05-13T12:02:28.431Z,68.80
2019-05-13T12:04:58.609Z,68.90
2019-05-13T12:07:29.223Z,69.00
2019-05-13T12:09:59.491Z,69.10
2019-05-13T12:12:34.271Z,69.40
2019-05-13T12:15:26.286Z,69.50
2019-05-13T12:17:34.376Z,69.70
2019-05-13T12:20:05.234Z,70.00
2019-05-13T12:22:35.657Z,70.10
2019-05-13T12:25:08.421Z,70.30
2019-05-13T12:27:38.886Z,70.50
2019-05-13T12:30:12.400Z,70.60
2019-05-13T12:32:43.815Z,70.90
2019-05-13T12:35:13.641Z,71.00
2019-05-13T12:37:44.526Z,71.30
2019-05-13T12:40:15.359Z,71.30
2019-05-13T12:42:47.291Z,71.60
2019-05-13T12:45:18.147Z,71.90
2019-05-13T12:47:53.076Z,71.90
2019-05-13T12:50:24.089Z,71.90
2019-05-13T12:52:57.620Z,71.70
2019-05-13T12:55:28.222Z,71.70
2019-05-13T12:58:02.940Z,71.70
2019-05-13T13:00:33.377Z,71.70
2019-05-13T13:03:03.859Z,71.90
2019-05-13T13:05:36.971Z,71.90
2019-05-13T13:08:28.896Z,72.00
2019-05-13T13:10:42.350Z,72.40
2019-05-13T13:13:12.028Z,72.40
2019-05-13T13:15:48.449Z,72.60
2019-05-13T13:18:15.232Z,72.50
2019-05-13T13:20:45.599Z,72.50
2019-05-13T13:23:16.707Z,72.30
2019-05-13T13:25:53.095Z,72.20
2019-05-13T13:28:22.843Z,72.20
2019-05-13T13:30:53.007Z,72.20
2019-05-13T13:33:22.637Z,72.20
2019-05-13T13:35:58.944Z,72.20
2019-05-13T13:38:25.314Z,72.30
2019-05-13T13:40:56.188Z,72.20
2019-05-13T13:43:27.225Z,72.20
2019-05-13T13:46:32.454Z,72.20
2019-05-13T13:48:33.213Z,72.30
2019-05-13T13:51:04.999Z,72.50
2019-05-13T13:53:34.046Z,72.50
2019-05-13T13:56:04.303Z,72.70
2019-05-13T13:58:34.748Z,72.80
2019-05-13T14:01:12.335Z,72.90
2019-05-13T14:03:37.723Z,73.00
2019-05-13T14:06:08.446Z,73.10
2019-05-13T14:08:41.366Z,73.30
2019-05-13T14:11:12.000Z,73.40
2019-05-13T14:13:42.614Z,73.50
2019-05-13T14:16:25.061Z,73.70
2019-05-13T14:18:45.912Z,74.30
2019-05-13T14:21:16.305Z,74.00
2019-05-13T14:23:46.632Z,74.30
2019-05-13T14:26:21.909Z,74.40
2019-05-13T14:28:53.949Z,74.30
2019-05-13T14:31:24.474Z,74.50
2019-05-13T14:33:54.724Z,74.70
2019-05-13T14:36:25.278Z,74.90
2019-05-13T14:38:57.176Z,75.20
2019-05-13T14:41:27.551Z,75.80
2019-05-13T14:43:57.989Z,76.90
2019-05-13T14:46:45.790Z,76.20
2019-05-13T14:49:01.676Z,76.50
2019-05-13T14:51:32.498Z,76.90
2019-05-13T14:54:02.875Z,77.00
2019-05-13T14:56:34.718Z,77.10
2019-05-13T14:59:05.934Z,76.90
2019-05-13T15:01:36.593Z,76.80
2019-05-13T15:04:07.727Z,76.80
2019-05-13T15:06:41.592Z,77.00
2019-05-13T15:09:12.848Z,77.40
2019-05-13T15:11:43.267Z,77.70
2019-05-13T15:14:13.658Z,77.80
2019-05-13T15:17:00.268Z,77.50
2019-05-13T15:19:16.082Z,77.30
2019-05-13T15:21:46.511Z,77.10
2019-05-13T15:24:17.008Z,77.30
2019-05-13T15:26:47.508Z,77.30
2019-05-13T15:29:18.089Z,77.40
2019-05-13T15:31:48.623Z,77.70
2019-05-13T15:34:19.478Z,77.70
2019-05-13T15:36:50.974Z,78.00
2019-05-13T15:39:21.676Z,78.20
2019-05-13T15:41:52.435Z,78.40
2019-05-13T15:44:22.859Z,78.80
2019-05-13T15:46:53.737Z,79.20
2019-05-13T15:49:24.076Z,79.60
2019-05-13T15:51:54.407Z,79.80
2019-05-13T15:54:24.977Z,80.30
2019-05-13T15:56:55.221Z,80.70
2019-05-13T15:59:25.573Z,81.10
2019-05-13T16:01:57.045Z,81.40
2019-05-13T16:04:27.578Z,81.80
2019-05-13T16:06:57.911Z,81.40
2019-05-13T16:09:28.302Z,81.90
2019-05-13T16:11:58.680Z,82.00
2019-05-13T16:14:31.275Z,82.40
2019-05-13T16:17:00.883Z,82.30
2019-05-13T16:19:32.682Z,82.40
2019-05-13T16:22:03.362Z,82.50
2019-05-13T16:24:33.647Z,82.50
2019-05-13T16:27:03.999Z,82.50
2019-05-13T16:29:34.492Z,82.50
2019-05-13T16:32:05.377Z,82.50
2019-05-13T16:34:35.580Z,82.70
2019-05-13T16:37:06.089Z,82.80
2019-05-13T16:39:36.843Z,83.00
2019-05-13T16:42:07.264Z,83.00
2019-05-13T16:44:37.546Z,83.00
2019-05-13T16:47:08.063Z,83.10
2019-05-13T16:49:38.467Z,83.10
2019-05-13T16:52:11.490Z,83.10
2019-05-13T16:54:42.446Z,83.40
2019-05-13T16:57:13.104Z,83.30
2019-05-13T16:59:43.545Z,84.10
2019-05-13T17:02:13.798Z,83.40
2019-05-13T17:04:44.344Z,83.60
2019-05-13T17:07:14.662Z,83.60
2019-05-13T17:09:44.942Z,83.60
2019-05-13T17:12:16.072Z,83.80
2019-05-13T17:14:46.362Z,84.00
2019-05-13T17:17:17.090Z,83.90
2019-05-13T17:19:47.442Z,84.00
2019-05-13T17:22:17.769Z,84.20
2019-05-13T17:24:48.161Z,84.60
2019-05-13T17:27:18.520Z,84.60
2019-05-13T17:29:51.448Z,84.80
2019-05-13T17:32:22.256Z,84.80
2019-05-13T17:34:52.327Z,84.90
2019-05-13T17:37:22.697Z,85.00
2019-05-13T17:39:53.009Z,85.00
2019-05-13T17:42:23.394Z,85.20
2019-05-13T17:44:54.712Z,85.20
2019-05-13T17:47:25.263Z,85.30
2019-05-13T17:49:56.698Z,85.20
2019-05-13T17:52:28.190Z,85.10
2019-05-13T17:55:00.957Z,85.00
2019-05-13T17:57:32.099Z,84.90
2019-05-13T18:00:02.419Z,84.90
2019-05-13T18:02:33.083Z,84.90
2019-05-13T18:05:03.370Z,84.80
2019-05-13T18:07:33.913Z,84.80
2019-05-13T18:10:04.452Z,84.80
2019-05-13T18:12:34.831Z,85.00
2019-05-13T18:15:06.687Z,85.10
2019-05-13T18:17:37.061Z,84.90
2019-05-13T18:20:08.619Z,85.00
2019-05-13T18:22:38.982Z,85.10
2019-05-13T18:25:11.801Z,85.10
2019-05-13T18:27:41.693Z,85.20
2019-05-13T18:30:13.062Z,85.20
2019-05-13T18:35:18.024Z,85.30
2019-05-13T18:37:48.524Z,85.50
2019-05-13T18:40:21.778Z,85.50
2019-05-13T18:42:51.471Z,85.50
2019-05-13T18:47:58.716Z,85.60
2019-05-13T18:50:31.204Z,85.50
2019-05-13T18:53:01.813Z,85.50
2019-05-13T18:55:32.501Z,85.60
2019-05-13T18:58:02.962Z,85.40
2019-05-13T19:00:33.283Z,85.40
2019-05-13T19:03:03.766Z,85.40
2019-05-13T19:05:34.414Z,85.20
2019-05-13T19:08:08.097Z,85.40
2019-05-13T19:10:38.739Z,85.30
2019-05-13T19:13:09.124Z,85.30
2019-05-13T19:15:41.158Z,85.30
2019-05-13T19:18:12.242Z,85.30
2019-05-13T19:20:42.775Z,85.40
2019-05-13T19:23:13.253Z,85.40
2019-05-13T19:25:43.700Z,85.40
2019-05-13T19:28:14.501Z,86.30
2019-05-13T19:30:44.843Z,85.70
2019-05-13T19:33:14.876Z,85.70
2019-05-13T19:35:45.733Z,85.90
2019-05-13T19:38:16.518Z,86.00
2019-05-13T19:40:46.783Z,86.10
2019-05-13T19:43:17.289Z,86.10
2019-05-13T19:45:47.610Z,86.20
2019-05-13T19:48:18.000Z,86.30
2019-05-13T19:50:48.237Z,86.30
2019-05-13T19:53:18.527Z,86.30
2019-05-13T19:55:49.087Z,86.30
2019-05-13T19:58:21.510Z,86.20
2019-05-13T20:00:51.639Z,86.30
2019-05-13T20:03:22.572Z,86.10
2019-05-13T20:05:53.241Z,86.10
2019-05-13T20:08:23.629Z,86.00
2019-05-13T20:10:54.491Z,85.90
2019-05-13T20:13:24.848Z,86.20
2019-05-13T20:15:55.176Z,85.90
2019-05-13T20:18:26.573Z,85.90
2019-05-13T20:20:57.123Z,86.10
2019-05-13T20:23:27.620Z,86.10
2019-05-13T20:25:57.877Z,86.10
2019-05-13T20:28:28.154Z,86.10
2019-05-13T20:30:58.647Z,86.00
2019-05-13T20:33:31.626Z,86.00
2019-05-13T20:36:01.621Z,86.00
2019-05-13T20:38:32.339Z,85.80
2019-05-13T20:41:03.012Z,85.80
2019-05-13T20:43:33.489Z,85.80
2019-05-13T20:46:03.938Z,85.80
2019-05-13T20:48:34.424Z,85.30
2019-05-13T20:51:04.956Z,85.90
2019-05-13T20:53:35.491Z,85.90
2019-05-13T20:56:06.061Z,85.90
2019-05-13T20:58:36.514Z,85.90
2019-05-13T21:01:06.851Z,85.80
2019-05-13T21:03:37.291Z,86.00
2019-05-13T21:06:07.640Z,86.00
2019-05-13T21:08:37.938Z,85.90
2019-05-13T21:11:08.298Z,86.00
2019-05-13T21:13:41.084Z,85.90
2019-05-13T21:16:11.402Z,86.10
2019-05-13T21:18:42.292Z,85.90
2019-05-13T21:21:13.074Z,85.70
2019-05-13T21:23:43.599Z,85.70
2019-05-13T21:26:15.694Z,85.50
2019-05-13T21:28:45.604Z,85.50
2019-05-13T21:31:16.133Z,85.50
2019-05-13T21:33:46.569Z,85.50
2019-05-13T21:36:16.844Z,85.70
2019-05-13T21:38:50.653Z,85.70
2019-05-13T21:41:21.315Z,85.60
2019-05-13T21:43:52.055Z,85.60
2019-05-13T21:46:22.758Z,85.60
2019-05-13T21:48:52.940Z,85.70
2019-05-13T21:51:23.356Z,85.70
2019-05-13T21:53:53.851Z,85.70
2019-05-13T21:56:24.426Z,85.60
2019-05-13T21:58:54.761Z,85.60
2019-05-13T22:01:25.119Z,85.50
2019-05-13T22:05:06.103Z,85.50
2019-05-13T22:07:36.658Z,85.30
2019-05-13T22:10:08.161Z,85.20
2019-05-13T22:12:38.534Z,85.30
2019-05-13T22:15:11.850Z,85.40
2019-05-13T22:17:42.350Z,85.40
2019-05-13T22:20:13.122Z,85.40
2019-05-13T22:22:43.613Z,85.30
2019-05-13T22:25:14.257Z,85.30
2019-05-13T22:27:44.777Z,85.10
2019-05-13T22:30:15.599Z,85.30
2019-05-13T22:32:45.983Z,85.30
2019-05-13T22:35:16.498Z,85.50
2019-05-13T22:37:47.043Z,85.60
2019-05-13T22:40:17.954Z,85.60
2019-05-13T22:42:48.458Z,85.80
2019-05-13T22:45:18.964Z,85.80
2019-05-13T22:47:49.306Z,85.90
2019-05-13T22:50:21.749Z,85.90
2019-05-13T22:52:51.682Z,86.00
2019-05-13T22:55:22.258Z,85.90
2019-05-13T22:57:52.363Z,86.00
2019-05-13T23:00:23.238Z,86.00
2019-05-13T23:02:53.747Z,86.10
2019-05-13T23:05:24.628Z,86.10
2019-05-13T23:07:57.599Z,86.10
2019-05-13T23:10:27.896Z,86.10
2019-05-13T23:12:58.982Z,86.20
2019-05-13T23:15:29.529Z,86.40
2019-05-13T23:18:01.255Z,86.30
2019-05-13T23:20:31.867Z,86.30
2019-05-13T23:23:02.290Z,86.30
2019-05-13T23:25:33.614Z,86.30
2019-05-13T23:28:04.212Z,86.20
2019-05-13T23:30:34.551Z,86.30
2019-05-13T23:33:05.110Z,86.30
2019-05-13T23:35:35.827Z,86.30
2019-05-13T23:38:06.315Z,86.30
2019-05-13T23:40:37.128Z,86.40
2019-05-13T23:43:07.542Z,86.50
2019-05-13T23:45:37.843Z,86.40
2019-05-13T23:48:08.331Z,86.50
2019-05-13T23:50:41.334Z,86.50
2019-05-13T23:53:10.935Z,86.70
2019-05-13T23:55:41.550Z,87.30
2019-05-13T23:58:12.307Z,86.70
